Hlavní strana
METAR-TAF:

METAR-TAF

Letiště :

Ammán, Jordánsko

zeměpisná šířka: 31-59N, zeměpisná délka: 035-59E, výška: 767 m

Aktuální stav počasí

Zpráva byla vytvořena před 1 hodinou a 9 minutami, v 20:00 UTC
Severozápadní vítr 6 kt
Teplota 26°C
Vlhkost vzduchu 37%
Tlak 1010 hPa
Viditelnost: 6000 m

METAR: OJAM 172000Z 32006KT 6000 NSC 26/10 Q1010 NOSIG

Čas: 00:09 (21:09 UTC)

Předpověď počasí

Zpráva byla vytvořena před 4 hodinami a 19 minutami, v 16:50 UTC
Předpověď platná od 17 v 18 UTC do 18 v 24 UTC
Západoseverozápadní vítr 10 kt
Viditelnost: 6000 m
Dočasný
od 18 v 00 UTC do 18 v 06 UTC
vítr z různých směrů 2 kt

TAF: OJAM 171650Z 1718/1824 30010KT 6000 NSC TEMPO 1800/1806 VRB02KT

Stav a předpovědi počasí z více než 4 000 letišť (zprávy METAR a TAF).

Červené a žluté tečky na mapě představují dostupné meteorologické stanice.

Když kurzor umístíte na tečku, zobrazí se název stanice.

Pak kliknutím zobrazíte stav a předpověď počasí.

Chcete-li změnit mapu, kliknutím na zelené tlačítko se znaménkem +mapu přiblížíte, kliknutím na zelené tlačítko se znaménkem – mapu oddálíte a kliknutím na zelené šipky přejdete na sousední mapy.


METAR-TAF: